createdAt,value
2015-02-21T00:00:01.299Z,22
2015-02-21T00:00:14.733Z,22
2015-02-21T00:00:28.350Z,22
2015-02-21T00:00:41.929Z,22
2015-02-21T00:00:55.424Z,22
2015-02-21T00:01:08.925Z,22
2015-02-21T00:01:22.620Z,22
2015-02-21T00:01:36.311Z,22
2015-02-21T00:01:49.673Z,22
2015-02-21T00:02:03.190Z,22
2015-02-21T00:02:16.986Z,22
2015-02-21T00:02:30.351Z,22
2015-02-21T00:02:43.763Z,22
2015-02-21T00:02:57.721Z,22
2015-02-21T00:03:11.320Z,22
2015-02-21T00:03:24.837Z,22
2015-02-21T00:03:38.343Z,22
2015-02-21T00:03:52.036Z,22
2015-02-21T00:04:05.632Z,22
2015-02-21T00:04:19.051Z,22
2015-02-21T00:04:32.449Z,22
2015-02-21T00:04:45.979Z,22
2015-02-21T00:04:59.349Z,22
2015-02-21T00:05:12.726Z,21
2015-02-21T00:05:26.226Z,21
2015-02-21T00:05:39.782Z,22
2015-02-21T00:05:53.322Z,21
2015-02-21T00:06:06.699Z,21
2015-02-21T00:06:20.116Z,21
2015-02-21T00:06:33.610Z,21
2015-02-21T00:06:47.049Z,21
2015-02-21T00:07:00.426Z,21
2015-02-21T00:07:13.905Z,21
2015-02-21T00:07:27.323Z,21
2015-02-21T00:07:40.680Z,21
2015-02-21T00:07:54.150Z,21
2015-02-21T00:08:07.666Z,21
2015-02-21T00:08:21.380Z,21
2015-02-21T00:08:35.104Z,21
2015-02-21T00:08:48.487Z,21
2015-02-21T00:09:01.956Z,21
2015-02-21T00:09:20.631Z,21
2015-02-21T00:09:34.168Z,21
2015-02-21T00:09:47.677Z,21
2015-02-21T00:10:01.133Z,21
2015-02-21T00:10:14.581Z,21
2015-02-21T00:10:28.705Z,21
2015-02-21T00:10:42.267Z,21
2015-02-21T00:10:55.630Z,21
2015-02-21T00:11:09.042Z,21
2015-02-21T00:11:22.617Z,21
2015-02-21T00:11:36.008Z,21
2015-02-21T00:11:49.523Z,21
2015-02-21T00:12:04.066Z,21
2015-02-21T00:12:17.540Z,21
2015-02-21T00:12:31.031Z,21
2015-02-21T00:12:44.435Z,21
2015-02-21T00:12:58.056Z,21
2015-02-21T00:13:11.703Z,21
2015-02-21T00:13:25.093Z,21
2015-02-21T00:13:38.539Z,21
2015-02-21T00:13:52.019Z,21
2015-02-21T00:14:05.414Z,21
2015-02-21T00:14:18.811Z,21
2015-02-21T00:14:32.266Z,21
2015-02-21T00:14:45.756Z,21
2015-02-21T00:14:59.298Z,21
2015-02-21T00:15:12.750Z,21
2015-02-21T00:15:26.213Z,21
2015-02-21T00:15:39.754Z,21
2015-02-21T00:15:53.216Z,21
2015-02-21T00:16:07.222Z,21
2015-02-21T00:16:20.755Z,21
2015-02-21T00:16:34.223Z,21
2015-02-21T00:16:47.645Z,21
2015-02-21T00:17:01.243Z,21
2015-02-21T00:17:15.408Z,21
2015-02-21T00:17:28.892Z,21
2015-02-21T00:17:42.339Z,21
2015-02-21T00:17:55.826Z,21
2015-02-21T00:18:09.328Z,21
2015-02-21T00:18:22.738Z,21
2015-02-21T00:18:36.066Z,21
2015-02-21T00:18:49.537Z,21
2015-02-21T00:19:02.923Z,21
2015-02-21T00:19:16.243Z,21
2015-02-21T00:19:29.704Z,21
2015-02-21T00:19:43.145Z,21
2015-02-21T00:19:56.903Z,21
2015-02-21T00:20:10.278Z,21
2015-02-21T00:20:23.714Z,20
2015-02-21T00:20:37.048Z,20
2015-02-21T00:20:50.517Z,20
2015-02-21T00:21:04.022Z,20
2015-02-21T00:21:17.355Z,20
2015-02-21T00:21:30.730Z,20
2015-02-21T00:21:44.200Z,20
2015-02-21T00:21:57.605Z,20
2015-02-21T00:22:10.948Z,20
2015-02-21T00:22:24.426Z,20
2015-02-21T00:22:37.857Z,20
2015-02-21T00:22:51.177Z,20
2015-02-21T00:23:04.622Z,20
2015-02-21T00:23:17.963Z,20
2015-02-21T00:23:31.403Z,20
2015-02-21T00:23:44.777Z,20
2015-02-21T00:23:58.129Z,20
2015-02-21T00:24:11.605Z,20
2015-02-21T00:24:25.040Z,20
2015-02-21T00:24:38.419Z,20
2015-02-21T00:24:51.843Z,20
2015-02-21T00:25:08.248Z,20
2015-02-21T00:25:21.574Z,20
2015-02-21T00:25:34.971Z,20
2015-02-21T00:25:48.408Z,20
2015-02-21T00:26:01.756Z,20
2015-02-21T00:26:15.153Z,20
2015-02-21T00:26:28.489Z,20
2015-02-21T00:26:41.975Z,20
2015-02-21T00:26:55.455Z,20
2015-02-21T00:27:08.799Z,20
2015-02-21T00:27:22.208Z,20
2015-02-21T00:27:35.687Z,20
2015-02-21T00:27:49.030Z,20
2015-02-21T00:28:02.789Z,20
2015-02-21T00:28:16.257Z,20
2015-02-21T00:28:29.589Z,20
2015-02-21T00:28:43.397Z,20
2015-02-21T00:28:56.816Z,20
2015-02-21T00:29:10.253Z,19
2015-02-21T00:29:23.741Z,19
2015-02-21T00:29:37.064Z,19
2015-02-21T00:29:50.448Z,19
2015-02-21T00:30:03.879Z,19
2015-02-21T00:30:17.216Z,19
2015-02-21T00:30:30.573Z,19
2015-02-21T00:30:44.005Z,19
2015-02-21T00:30:57.389Z,19
2015-02-21T00:31:10.736Z,19
2015-02-21T00:31:24.203Z,19
2015-02-21T00:31:37.612Z,19
2015-02-21T00:31:51.053Z,19
2015-02-21T00:32:04.412Z,19
2015-02-21T00:32:17.800Z,19
2015-02-21T00:32:31.233Z,19
2015-02-21T00:32:44.582Z,19
2015-02-21T00:32:57.921Z,19
2015-02-21T00:33:11.356Z,19
2015-02-21T00:33:24.744Z,19
2015-02-21T00:33:38.086Z,19
2015-02-21T00:33:51.560Z,19
2015-02-21T00:34:05.017Z,19
2015-02-21T00:34:18.393Z,19
2015-02-21T00:34:31.764Z,19
2015-02-21T00:34:45.129Z,19
2015-02-21T00:34:58.559Z,19
2015-02-21T00:35:11.954Z,19
2015-02-21T00:35:25.278Z,19
2015-02-21T00:35:38.694Z,19
2015-02-21T00:35:52.125Z,19
2015-02-21T00:36:05.485Z,19
2015-02-21T00:36:18.897Z,19
2015-02-21T00:36:32.386Z,19
2015-02-21T00:36:45.705Z,19
2015-02-21T00:36:59.082Z,19
2015-02-21T00:37:12.536Z,19
2015-02-21T00:37:25.885Z,19
2015-02-21T00:37:39.303Z,19
2015-02-21T00:37:52.642Z,19
2015-02-21T00:38:05.969Z,19
2015-02-21T00:38:19.433Z,19
2015-02-21T00:38:32.781Z,19
2015-02-21T00:38:46.212Z,19
2015-02-21T00:38:59.703Z,19
2015-02-21T00:39:13.065Z,19
2015-02-21T00:39:26.414Z,19
2015-02-21T00:39:39.905Z,19
2015-02-21T00:39:53.276Z,19
2015-02-21T00:40:06.598Z,19
2015-02-21T00:40:20.505Z,19
2015-02-21T00:40:33.905Z,19
2015-02-21T00:40:47.395Z,19
2015-02-21T00:41:00.754Z,19
2015-02-21T00:41:14.103Z,19
2015-02-21T00:41:27.544Z,19
2015-02-21T00:41:40.901Z,19
2015-02-21T00:41:54.227Z,19
2015-02-21T00:42:07.681Z,19
2015-02-21T00:42:21.062Z,19
2015-02-21T00:42:34.397Z,19
2015-02-21T00:42:47.817Z,19
2015-02-21T00:43:01.250Z,19
2015-02-21T00:43:14.608Z,19
2015-02-21T00:43:28.009Z,19
2015-02-21T00:43:41.451Z,19
2015-02-21T00:43:54.756Z,18
2015-02-21T00:44:08.131Z,18
2015-02-21T00:44:21.594Z,19
2015-02-21T00:44:34.927Z,19
2015-02-21T00:44:48.287Z,18
2015-02-21T00:45:01.727Z,18
2015-02-21T00:45:15.123Z,18
2015-02-21T00:45:28.501Z,18
2015-02-21T00:45:41.961Z,18
2015-02-21T00:45:55.341Z,18
2015-02-21T00:46:08.716Z,18
2015-02-21T00:46:22.059Z,18
2015-02-21T00:46:35.413Z,18
2015-02-21T00:46:48.780Z,18
2015-02-21T00:47:02.132Z,18
2015-02-21T00:47:16.182Z,18
2015-02-21T00:47:29.880Z,18
2015-02-21T00:47:43.404Z,18
2015-02-21T00:47:56.753Z,18
2015-02-21T00:48:10.150Z,18
2015-02-21T00:48:23.625Z,18
2015-02-21T00:48:36.966Z,18
2015-02-21T00:48:50.353Z,18
2015-02-21T00:49:03.705Z,18
2015-02-21T00:49:17.138Z,18
2015-02-21T00:49:30.561Z,18
2015-02-21T00:49:43.913Z,18
2015-02-21T00:49:57.322Z,18
2015-02-21T00:50:10.748Z,18
2015-02-21T00:50:24.077Z,18
2015-02-21T00:50:37.446Z,18
2015-02-21T00:50:50.872Z,18
2015-02-21T00:51:04.250Z,18
2015-02-21T00:51:17.634Z,18
2015-02-21T00:51:31.110Z,18
2015-02-21T00:51:44.502Z,18
2015-02-21T00:51:57.895Z,18
2015-02-21T00:52:11.226Z,18
2015-02-21T00:52:24.631Z,18
2015-02-21T00:52:38.056Z,18
2015-02-21T00:52:51.375Z,18
2015-02-21T00:53:04.770Z,18
2015-02-21T00:53:18.197Z,18
2015-02-21T00:53:31.586Z,18
2015-02-21T00:53:44.955Z,18
2015-02-21T00:53:58.428Z,18
2015-02-21T00:54:11.817Z,18
2015-02-21T00:54:25.112Z,18
2015-02-21T00:54:38.521Z,18
2015-02-21T00:54:51.868Z,18
2015-02-21T00:55:05.294Z,18
2015-02-21T00:55:18.640Z,18
2015-02-21T00:55:31.988Z,18
2015-02-21T00:55:45.485Z,18
2015-02-21T00:55:58.875Z,18
2015-02-21T00:56:12.243Z,18
2015-02-21T00:56:25.693Z,18
2015-02-21T00:56:39.075Z,18
2015-02-21T00:56:52.389Z,18
2015-02-21T00:57:05.805Z,18
2015-02-21T00:57:19.210Z,18
2015-02-21T00:57:32.567Z,18
2015-02-21T00:57:45.949Z,18
2015-02-21T00:57:59.290Z,18
2015-02-21T00:58:12.746Z,18
2015-02-21T00:58:26.135Z,18
2015-02-21T00:58:39.448Z,18
2015-02-21T00:58:52.835Z,18
2015-02-21T00:59:06.257Z,18
2015-02-21T00:59:19.580Z,18
2015-02-21T00:59:32.976Z,18
2015-02-21T00:59:46.392Z,18
2015-02-21T00:59:59.734Z,18
2015-02-21T01:00:13.137Z,18
2015-02-21T01:00:26.548Z,18
2015-02-21T01:00:39.965Z,18
2015-02-21T01:00:53.401Z,18
2015-02-21T01:01:06.746Z,17
2015-02-21T01:01:20.129Z,17
2015-02-21T01:01:33.580Z,18
2015-02-21T01:01:46.913Z,17
2015-02-21T01:02:00.276Z,17
2015-02-21T01:02:13.702Z,17
2015-02-21T01:02:27.086Z,17
2015-02-21T01:02:40.457Z,17
2015-02-21T01:02:53.910Z,17
2015-02-21T01:03:07.282Z,17
2015-02-21T01:03:20.692Z,17
2015-02-21T01:03:34.011Z,17
2015-02-21T01:03:47.377Z,17
2015-02-21T01:04:00.809Z,17
2015-02-21T01:04:14.149Z,17
2015-02-21T01:04:27.481Z,17
2015-02-21T01:04:40.931Z,17
2015-02-21T01:04:54.333Z,17
2015-02-21T01:05:07.647Z,17
2015-02-21T01:05:21.089Z,17
2015-02-21T01:05:34.477Z,17
2015-02-21T01:05:47.797Z,17
2015-02-21T01:06:01.248Z,17
2015-02-21T01:06:14.638Z,17
2015-02-21T01:06:27.966Z,17
2015-02-21T01:06:41.393Z,17
2015-02-21T01:06:54.851Z,17
2015-02-21T01:07:08.193Z,17
2015-02-21T01:07:21.572Z,17
2015-02-21T01:07:35.019Z,17
2015-02-21T01:07:48.357Z,17
2015-02-21T01:08:01.732Z,17
2015-02-21T01:08:15.175Z,17
2015-02-21T01:08:28.516Z,17
2015-02-21T01:08:41.890Z,17
2015-02-21T01:08:55.297Z,17
2015-02-21T01:09:08.718Z,17
2015-02-21T01:09:22.175Z,17
2015-02-21T01:09:35.533Z,17
2015-02-21T01:09:48.868Z,17
2015-02-21T01:10:02.287Z,17
2015-02-21T01:10:15.647Z,17
2015-02-21T01:10:29.520Z,17
2015-02-21T01:10:42.934Z,17
2015-02-21T01:10:56.325Z,17
2015-02-21T01:11:09.687Z,17
2015-02-21T01:11:23.145Z,17
2015-02-21T01:11:36.585Z,17
2015-02-21T01:11:49.956Z,17
2015-02-21T01:12:03.321Z,17
2015-02-21T01:12:16.647Z,17
2015-02-21T01:12:30.061Z,17
2015-02-21T01:12:43.457Z,17
2015-02-21T01:12:56.781Z,17
2015-02-21T01:13:10.191Z,17
2015-02-21T01:13:23.607Z,17
2015-02-21T01:13:36.963Z,17
2015-02-21T01:13:50.338Z,17
2015-02-21T01:14:03.758Z,17
2015-02-21T01:14:17.058Z,17
2015-02-21T01:14:30.460Z,17
2015-02-21T01:14:43.826Z,17
2015-02-21T01:14:57.260Z,17
2015-02-21T01:15:10.696Z,17
2015-02-21T01:15:24.575Z,17
2015-02-21T01:15:38.003Z,17
2015-02-21T01:15:51.429Z,17
2015-02-21T01:16:04.750Z,17
2015-02-21T01:16:18.118Z,17
2015-02-21T01:16:31.581Z,17
2015-02-21T01:16:44.923Z,17
2015-02-21T01:16:58.267Z,17
2015-02-21T01:17:12.194Z,17
2015-02-21T01:17:25.586Z,17
2015-02-21T01:17:39.028Z,17
2015-02-21T01:17:52.376Z,17
2015-02-21T01:18:05.751Z,17
2015-02-21T01:18:19.193Z,17
2015-02-21T01:18:32.517Z,17
2015-02-21T01:18:45.863Z,17
2015-02-21T01:18:59.319Z,17
2015-02-21T01:19:12.693Z,17
2015-02-21T01:19:26.030Z,17
2015-02-21T01:19:39.496Z,17
2015-02-21T01:19:52.900Z,17
2015-02-21T01:20:06.245Z,17
2015-02-21T01:20:19.666Z,17
2015-02-21T01:20:32.997Z,17
2015-02-21T01:20:46.424Z,17
2015-02-21T01:20:59.792Z,17
2015-02-21T01:21:13.118Z,17
2015-02-21T01:21:26.516Z,17
2015-02-21T01:21:39.884Z,17
2015-02-21T01:21:53.190Z,17
2015-02-21T01:22:06.607Z,17
2015-02-21T01:22:20.051Z,17
2015-02-21T01:22:33.396Z,17
2015-02-21T01:22:46.820Z,17
2015-02-21T01:23:00.253Z,17
2015-02-21T01:23:13.580Z,17
2015-02-21T01:23:27.003Z,17
2015-02-21T01:23:40.328Z,17
2015-02-21T01:23:53.815Z,17
2015-02-21T01:24:07.168Z,17
2015-02-21T01:24:20.514Z,17
2015-02-21T01:24:33.971Z,17
2015-02-21T01:24:47.524Z,17
2015-02-21T01:25:00.928Z,17
2015-02-21T01:25:14.315Z,17
2015-02-21T01:25:27.732Z,17
2015-02-21T01:25:41.080Z,17
2015-02-21T01:25:54.438Z,17
2015-02-21T01:26:07.825Z,17
2015-02-21T01:26:21.164Z,17
2015-02-21T01:26:34.628Z,17
2015-02-21T01:26:47.972Z,17
2015-02-21T01:27:01.430Z,17
2015-02-21T01:27:14.907Z,17
2015-02-21T01:27:28.675Z,17
2015-02-21T01:27:42.033Z,17
2015-02-21T01:27:55.475Z,17
2015-02-21T01:28:08.837Z,16
2015-02-21T01:28:22.197Z,16
2015-02-21T01:28:35.641Z,16
2015-02-21T01:28:49.070Z,16
2015-02-21T01:29:02.427Z,16
2015-02-21T01:29:15.863Z,16
2015-02-21T01:29:33.458Z,16
2015-02-21T01:29:46.837Z,16
2015-02-21T01:30:00.236Z,16
2015-02-21T01:30:13.668Z,16
2015-02-21T01:30:26.984Z,16
2015-02-21T01:30:40.413Z,16
2015-02-21T01:30:53.879Z,16
2015-02-21T01:31:07.273Z,16
2015-02-21T01:31:20.630Z,16
2015-02-21T01:31:34.054Z,16
2015-02-21T01:31:47.455Z,16
2015-02-21T01:32:00.875Z,16
2015-02-21T01:32:14.182Z,16
2015-02-21T01:32:27.554Z,16
2015-02-21T01:32:40.991Z,16
2015-02-21T01:32:54.361Z,16
2015-02-21T01:33:07.681Z,16
2015-02-21T01:33:21.130Z,16
2015-02-21T01:33:34.518Z,16
2015-02-21T01:33:47.851Z,16
2015-02-21T01:34:01.308Z,16
2015-02-21T01:34:14.705Z,16
2015-02-21T01:34:28.635Z,16
2015-02-21T01:34:42.070Z,16
2015-02-21T01:34:55.400Z,16
2015-02-21T01:35:08.838Z,16
2015-02-21T01:35:22.216Z,16
2015-02-21T01:35:35.543Z,16
2015-02-21T01:35:48.999Z,16
2015-02-21T01:36:02.394Z,16
2015-02-21T01:36:15.741Z,16
2015-02-21T01:36:29.141Z,16
2015-02-21T01:36:42.547Z,16
2015-02-21T01:36:55.868Z,16
2015-02-21T01:37:09.260Z,16
2015-02-21T01:37:22.712Z,16
2015-02-21T01:37:36.054Z,16
2015-02-21T01:37:49.461Z,16
2015-02-21T01:38:03.487Z,16
2015-02-21T01:38:17.025Z,16
2015-02-21T01:38:30.408Z,16
2015-02-21T01:38:43.730Z,16
2015-02-21T01:38:57.103Z,16
2015-02-21T01:39:10.542Z,16
2015-02-21T01:39:23.848Z,16
2015-02-21T01:39:37.213Z,16
2015-02-21T01:39:50.672Z,16
2015-02-21T01:40:04.045Z,16
2015-02-21T01:40:17.432Z,16
2015-02-21T01:40:30.868Z,16
2015-02-21T01:40:44.256Z,16
2015-02-21T01:40:57.612Z,16
2015-02-21T01:41:10.969Z,16
2015-02-21T01:41:24.349Z,16
2015-02-21T01:41:37.759Z,16
2015-02-21T01:41:51.113Z,16
2015-02-21T01:42:04.454Z,16
2015-02-21T01:42:17.904Z,16
2015-02-21T01:42:31.285Z,16
2015-02-21T01:42:44.636Z,16
2015-02-21T01:42:58.100Z,16
2015-02-21T01:43:11.544Z,16
2015-02-21T01:43:24.949Z,16
2015-02-21T01:43:38.287Z,16
2015-02-21T01:43:51.659Z,16
2015-02-21T01:44:05.071Z,16
2015-02-21T01:44:18.422Z,16
2015-02-21T01:44:31.775Z,16
2015-02-21T01:44:45.207Z,16
2015-02-21T01:44:58.634Z,16
2015-02-21T01:45:11.980Z,16
2015-02-21T01:45:25.400Z,16
2015-02-21T01:45:38.826Z,16
2015-02-21T01:45:52.142Z,16
2015-02-21T01:46:05.570Z,16
2015-02-21T01:46:18.912Z,16
2015-02-21T01:46:32.358Z,16
2015-02-21T01:46:45.735Z,16
2015-02-21T01:46:59.058Z,16
2015-02-21T01:47:13.159Z,16
2015-02-21T01:47:26.630Z,16
2015-02-21T01:47:39.950Z,16
2015-02-21T01:47:53.370Z,16
2015-02-21T01:48:06.776Z,16
2015-02-21T01:48:20.089Z,16
2015-02-21T01:48:33.444Z,16
2015-02-21T01:48:46.875Z,16
2015-02-21T01:49:00.219Z,16
2015-02-21T01:49:13.643Z,16
2015-02-21T01:49:26.899Z,16
2015-02-21T01:49:40.330Z,16
2015-02-21T01:49:53.851Z,16
2015-02-21T01:50:07.200Z,16
2015-02-21T01:50:20.567Z,16
2015-02-21T01:50:34.012Z,16
2015-02-21T01:50:47.357Z,16
2015-02-21T01:51:00.694Z,16
2015-02-21T01:51:14.114Z,16
2015-02-21T01:51:27.484Z,16
2015-02-21T01:51:40.822Z,16
2015-02-21T01:51:54.284Z,16
2015-02-21T01:52:07.703Z,16
2015-02-21T01:52:21.070Z,16
2015-02-21T01:52:34.490Z,16
2015-02-21T01:52:47.919Z,16
2015-02-21T01:53:01.245Z,16
2015-02-21T01:53:14.641Z,16
2015-02-21T01:53:28.072Z,16
2015-02-21T01:53:41.408Z,16
2015-02-21T01:53:54.795Z,16
2015-02-21T01:54:08.225Z,16
2015-02-21T01:54:21.577Z,16
2015-02-21T01:54:34.967Z,16
2015-02-21T01:54:48.363Z,16
2015-02-21T01:55:01.762Z,16
2015-02-21T01:55:15.183Z,16
2015-02-21T01:55:28.490Z,16
2015-02-21T01:55:41.853Z,16
2015-02-21T01:55:55.308Z,16
2015-02-21T01:56:08.656Z,16
2015-02-21T01:56:22.027Z,16
2015-02-21T01:56:35.480Z,16
2015-02-21T01:56:48.866Z,16
2015-02-21T01:57:02.173Z,16
2015-02-21T01:57:15.616Z,16
2015-02-21T01:57:29.016Z,16
2015-02-21T01:57:42.394Z,16
2015-02-21T01:57:55.753Z,16
2015-02-21T01:58:09.084Z,16
2015-02-21T01:58:22.500Z,16
2015-02-21T01:58:35.877Z,16
2015-02-21T01:58:49.258Z,16
2015-02-21T01:59:02.735Z,16
2015-02-21T01:59:16.124Z,16
2015-02-21T01:59:29.423Z,16
2015-02-21T01:59:42.831Z,16
2015-02-21T01:59:56.257Z,16
2015-02-21T02:00:09.593Z,16
2015-02-21T02:00:22.981Z,16
2015-02-21T02:00:36.313Z,16
2015-02-21T02:00:49.752Z,16
2015-02-21T02:01:03.149Z,16
2015-02-21T02:01:16.545Z,16
2015-02-21T02:01:29.976Z,16
2015-02-21T02:01:43.384Z,16
2015-02-21T02:01:56.735Z,16
2015-02-21T02:02:10.148Z,16
2015-02-21T02:02:23.621Z,16
2015-02-21T02:02:36.940Z,16
2015-02-21T02:02:50.321Z,16
2015-02-21T02:03:03.762Z,16
2015-02-21T02:03:17.129Z,16
2015-02-21T02:03:30.563Z,15
2015-02-21T02:03:43.909Z,15
2015-02-21T02:03:57.346Z,16
2015-02-21T02:04:10.787Z,15
2015-02-21T02:04:24.512Z,15
2015-02-21T02:04:37.866Z,15
2015-02-21T02:04:51.315Z,15
2015-02-21T02:05:04.652Z,15
2015-02-21T02:05:17.990Z,15
2015-02-21T02:05:31.422Z,15
2015-02-21T02:05:44.823Z,15
2015-02-21T02:05:58.166Z,15
2015-02-21T02:06:12.263Z,15
2015-02-21T02:06:25.599Z,15
2015-02-21T02:06:39.082Z,15
2015-02-21T02:06:52.434Z,15
2015-02-21T02:07:05.788Z,15
2015-02-21T02:07:19.224Z,15
2015-02-21T02:07:32.545Z,15
2015-02-21T02:07:45.864Z,15
2015-02-21T02:07:59.312Z,15
2015-02-21T02:08:12.725Z,15
2015-02-21T02:08:26.033Z,15
2015-02-21T02:08:39.433Z,15
2015-02-21T02:08:52.843Z,15
2015-02-21T02:09:06.215Z,15
2015-02-21T02:09:19.563Z,15
2015-02-21T02:09:32.898Z,15
2015-02-21T02:09:46.313Z,15
2015-02-21T02:09:59.712Z,15
2015-02-21T02:10:13.018Z,15
2015-02-21T02:10:26.446Z,15
2015-02-21T02:10:39.879Z,15
2015-02-21T02:10:53.199Z,15
2015-02-21T02:11:06.592Z,15
2015-02-21T02:11:20.054Z,15
2015-02-21T02:11:33.343Z,15
2015-02-21T02:11:46.712Z,15
2015-02-21T02:12:00.087Z,15
2015-02-21T02:12:13.602Z,15
2015-02-21T02:12:27.038Z,15
2015-02-21T02:12:40.485Z,15
2015-02-21T02:12:53.863Z,15
2015-02-21T02:13:07.311Z,15
2015-02-21T02:13:20.624Z,15
2015-02-21T02:13:33.963Z,15
2015-02-21T02:13:47.401Z,15
2015-02-21T02:14:00.736Z,15
2015-02-21T02:14:14.080Z,15
2015-02-21T02:14:27.517Z,15
2015-02-21T02:14:40.921Z,15
2015-02-21T02:14:54.290Z,15
2015-02-21T02:15:07.734Z,15
2015-02-21T02:15:21.125Z,15
2015-02-21T02:15:34.447Z,15
2015-02-21T02:15:47.877Z,15
2015-02-21T02:16:01.211Z,15
2015-02-21T02:16:14.556Z,15
2015-02-21T02:16:27.981Z,15
2015-02-21T02:16:41.455Z,15
2015-02-21T02:16:54.815Z,15
2015-02-21T02:17:08.475Z,15
2015-02-21T02:17:22.038Z,15
2015-02-21T02:17:35.411Z,15
2015-02-21T02:17:48.820Z,15
2015-02-21T02:18:02.162Z,15
2015-02-21T02:18:15.544Z,15
2015-02-21T02:18:28.954Z,15
2015-02-21T02:18:42.301Z,15
2015-02-21T02:18:55.703Z,15
2015-02-21T02:19:09.199Z,15
2015-02-21T02:19:22.572Z,15
2015-02-21T02:19:35.931Z,15
2015-02-21T02:19:49.353Z,15
2015-02-21T02:20:02.744Z,15
2015-02-21T02:20:16.054Z,15
2015-02-21T02:20:29.473Z,15
2015-02-21T02:20:42.803Z,15
2015-02-21T02:20:56.237Z,15
2015-02-21T02:21:09.929Z,15
2015-02-21T02:21:23.301Z,15
2015-02-21T02:21:36.791Z,15
2015-02-21T02:21:50.211Z,15
2015-02-21T02:22:03.535Z,15
2015-02-21T02:22:23.336Z,15
2015-02-21T02:22:36.731Z,15
2015-02-21T02:22:50.056Z,15
2015-02-21T02:23:03.464Z,15
2015-02-21T02:23:16.886Z,15
2015-02-21T02:23:30.257Z,15
2015-02-21T02:23:43.626Z,15
2015-02-21T02:23:56.972Z,15
2015-02-21T02:24:10.409Z,15
2015-02-21T02:24:23.810Z,15
2015-02-21T02:24:37.150Z,15
2015-02-21T02:24:50.555Z,15
2015-02-21T02:25:03.947Z,15
2015-02-21T02:25:17.249Z,15
2015-02-21T02:25:30.640Z,15
2015-02-21T02:25:43.979Z,15
2015-02-21T02:25:57.289Z,15
2015-02-21T02:26:10.655Z,15
2015-02-21T02:26:24.102Z,15
2015-02-21T02:26:37.553Z,15
2015-02-21T02:26:50.958Z,15
2015-02-21T02:27:04.289Z,15
2015-02-21T02:27:17.664Z,15
2015-02-21T02:27:31.109Z,15
2015-02-21T02:27:44.421Z,15
2015-02-21T02:27:57.775Z,15
2015-02-21T02:28:11.214Z,15
2015-02-21T02:28:24.535Z,15
2015-02-21T02:28:37.868Z,15
2015-02-21T02:28:51.315Z,15
2015-02-21T02:29:04.682Z,15
2015-02-21T02:29:18.102Z,15
2015-02-21T02:29:31.411Z,15
2015-02-21T02:29:44.766Z,15
2015-02-21T02:29:58.215Z,15
2015-02-21T02:30:11.561Z,15
2015-02-21T02:30:24.893Z,15
2015-02-21T02:30:38.316Z,15
2015-02-21T02:30:51.732Z,15
2015-02-21T02:31:05.057Z,15
2015-02-21T02:31:18.487Z,15
2015-02-21T02:31:31.894Z,15
2015-02-21T02:31:45.229Z,15
2015-02-21T02:31:58.633Z,15
2015-02-21T02:32:11.980Z,15
2015-02-21T02:32:25.416Z,15
2015-02-21T02:32:38.781Z,15
2015-02-21T02:32:52.107Z,15
2015-02-21T02:33:05.563Z,15
2015-02-21T02:33:18.957Z,15
2015-02-21T02:33:32.336Z,15
2015-02-21T02:33:45.768Z,15
2015-02-21T02:33:59.235Z,15
2015-02-21T02:34:12.545Z,15
2015-02-21T02:34:25.900Z,15
2015-02-21T02:34:39.340Z,15
2015-02-21T02:34:52.681Z,15
2015-02-21T02:35:06.072Z,15
2015-02-21T02:35:19.387Z,15
2015-02-21T02:35:32.784Z,15
2015-02-21T02:35:46.173Z,15
2015-02-21T02:35:59.496Z,15
2015-02-21T02:36:12.861Z,15
2015-02-21T02:36:26.304Z,15
2015-02-21T02:36:39.632Z,15
2015-02-21T02:36:53.615Z,15
2015-02-21T02:37:07.076Z,15
2015-02-21T02:37:20.400Z,15
2015-02-21T02:37:33.709Z,15
2015-02-21T02:37:47.216Z,15
2015-02-21T02:38:00.583Z,15
2015-02-21T02:38:13.906Z,15
2015-02-21T02:38:27.331Z,15
2015-02-21T02:38:40.704Z,15
2015-02-21T02:38:54.022Z,15
2015-02-21T02:39:07.458Z,15
2015-02-21T02:39:20.878Z,15
2015-02-21T02:39:34.197Z,15
2015-02-21T02:39:47.602Z,15
2015-02-21T02:40:01.043Z,15
2015-02-21T02:40:14.345Z,15
2015-02-21T02:40:27.707Z,15
2015-02-21T02:40:41.070Z,15
2015-02-21T02:40:54.475Z,15
2015-02-21T02:41:07.891Z,15
2015-02-21T02:41:21.217Z,15
2015-02-21T02:41:34.608Z,15
2015-02-21T02:41:48.050Z,15
2015-02-21T02:42:01.355Z,15
2015-02-21T02:42:14.731Z,15
2015-02-21T02:42:28.334Z,15
2015-02-21T02:42:41.740Z,15
2015-02-21T02:42:55.106Z,15
2015-02-21T02:43:08.567Z,15
2015-02-21T02:43:21.928Z,15
2015-02-21T02:43:35.336Z,15
2015-02-21T02:43:48.684Z,15
2015-02-21T02:44:02.063Z,15
2015-02-21T02:44:15.495Z,15
2015-02-21T02:44:28.824Z,15
2015-02-21T02:44:42.174Z,15
2015-02-21T02:44:55.638Z,15
2015-02-21T02:45:09.033Z,15
2015-02-21T02:45:22.398Z,15
2015-02-21T02:45:35.862Z,15
2015-02-21T02:45:49.248Z,15
2015-02-21T02:46:02.571Z,15
2015-02-21T02:46:15.991Z,15
2015-02-21T02:46:29.325Z,15
2015-02-21T02:46:42.763Z,15
2015-02-21T02:46:56.142Z,15
2015-02-21T02:47:10.495Z,15
2015-02-21T02:47:24.003Z,15
2015-02-21T02:47:37.398Z,15
2015-02-21T02:47:50.705Z,15
2015-02-21T02:48:04.149Z,15
2015-02-21T02:48:17.598Z,15
2015-02-21T02:48:30.940Z,15
2015-02-21T02:48:44.355Z,15
2015-02-21T02:48:57.815Z,15
2015-02-21T02:49:11.046Z,15
2015-02-21T02:49:24.413Z,15
2015-02-21T02:49:37.855Z,15
2015-02-21T02:49:51.200Z,15
2015-02-21T02:50:04.535Z,15
2015-02-21T02:50:17.953Z,15
2015-02-21T02:50:31.326Z,15
2015-02-21T02:50:44.623Z,15
2015-02-21T02:50:58.068Z,15
2015-02-21T02:51:11.469Z,15
2015-02-21T02:51:24.831Z,15
2015-02-21T02:51:38.289Z,15
2015-02-21T02:51:51.738Z,15
2015-02-21T02:52:05.137Z,15
2015-02-21T02:52:18.511Z,15
2015-02-21T02:52:31.815Z,15
2015-02-21T02:52:45.267Z,15
2015-02-21T02:52:58.706Z,15
2015-02-21T02:53:12.024Z,15
2015-02-21T02:53:25.434Z,15
2015-02-21T02:53:38.865Z,15
2015-02-21T02:53:52.169Z,15
2015-02-21T02:54:05.580Z,15
2015-02-21T02:54:19.029Z,15
2015-02-21T02:54:32.369Z,15
2015-02-21T02:54:45.771Z,15
2015-02-21T02:54:59.881Z,15
2015-02-21T02:55:13.311Z,15
2015-02-21T02:55:26.739Z,15
2015-02-21T02:55:40.095Z,15
2015-02-21T02:55:53.508Z,15
2015-02-21T02:56:06.945Z,15
2015-02-21T02:56:20.269Z,15
2015-02-21T02:56:33.652Z,15
2015-02-21T02:56:47.085Z,15
2015-02-21T02:57:00.456Z,15
2015-02-21T02:57:13.807Z,15
2015-02-21T02:57:27.232Z,15
2015-02-21T02:57:40.639Z,15
2015-02-21T02:57:54.093Z,15
2015-02-21T02:58:07.422Z,15
2015-02-21T02:58:20.806Z,15
2015-02-21T02:58:34.238Z,15
2015-02-21T02:58:47.591Z,15
2015-02-21T02:59:00.935Z,15
2015-02-21T02:59:14.390Z,15
2015-02-21T02:59:27.761Z,15
2015-02-21T02:59:41.077Z,15
2015-02-21T02:59:54.517Z,14
2015-02-21T03:00:07.926Z,15
2015-02-21T03:00:21.234Z,15
2015-02-21T03:00:34.655Z,14
2015-02-21T03:00:48.106Z,14
2015-02-21T03:01:01.497Z,14
2015-02-21T03:01:14.888Z,14
2015-02-21T03:01:28.324Z,14
2015-02-21T03:01:41.652Z,14
2015-02-21T03:01:55.020Z,14
2015-02-21T03:02:08.460Z,14
2015-02-21T03:02:21.809Z,14
2015-02-21T03:02:35.170Z,14
2015-02-21T03:02:48.591Z,14
2015-02-21T03:03:01.961Z,14
2015-02-21T03:03:15.318Z,14
2015-02-21T03:03:28.754Z,14
2015-02-21T03:03:42.154Z,14
2015-02-21T03:03:55.630Z,14
2015-02-21T03:04:09.015Z,14
2015-02-21T03:04:22.358Z,14
2015-02-21T03:04:35.809Z,14
2015-02-21T03:04:49.165Z,14
2015-02-21T03:05:02.487Z,14
2015-02-21T03:05:15.899Z,14
2015-02-21T03:05:29.294Z,14
2015-02-21T03:05:42.596Z,14
2015-02-21T03:05:55.984Z,14
2015-02-21T03:06:09.433Z,14
2015-02-21T03:06:22.790Z,14
2015-02-21T03:06:36.180Z,14
2015-02-21T03:06:49.557Z,14
2015-02-21T03:07:03.015Z,14
2015-02-21T03:07:16.415Z,14
2015-02-21T03:07:29.773Z,14
2015-02-21T03:07:43.181Z,14
2015-02-21T03:07:56.632Z,14
2015-02-21T03:08:09.958Z,14
2015-02-21T03:08:23.370Z,14
2015-02-21T03:08:36.830Z,14
2015-02-21T03:08:50.145Z,14
2015-02-21T03:09:03.495Z,14
2015-02-21T03:09:16.869Z,14
2015-02-21T03:09:30.291Z,14
2015-02-21T03:09:43.736Z,14
2015-02-21T03:09:57.146Z,14
2015-02-21T03:10:10.537Z,14
2015-02-21T03:10:23.919Z,14
2015-02-21T03:10:37.244Z,14
2015-02-21T03:10:50.642Z,14
2015-02-21T03:11:04.090Z,14
2015-02-21T03:11:17.427Z,14
2015-02-21T03:11:30.791Z,14